• Join FlightAware (Why Join?)
  • Login
  • US Flag 
06:31AM EDT


 

Airport Tracker/Info


-or-


 

Live Flight TrackerFlight Track Log ✈ EJA929 ✈ 02-Jun-2013 ✈ KMKE - KORD

Flight Track Log - Related Links

Times and Time Zones

All times are in EDT time to prevent confusion due to time zone crossing. See the EJA929 flight status page for this flight to view local times or setup timezone preferences in your user account.

Time Position Orientation Groundspeed Altitude Reporting Facility
EDT Latitude Longitude Course Direction KTS MPH feet Rate Location/Type
03:39PM 42.9500 -87.9000 48° Northeast 178 205 1,600  Level KMKE
03:40PM 42.9833 -87.8500 48° Northeast 226 260 4,900 2,760 Climbing KMKE
03:41PM 42.9500 -87.7667 119° Southeast 260 299 7,000 1,020 Climbing KMKE
03:42PM 42.8833 -87.7167 151° Southeast 284 327 7,000  Level KMKE
03:43PM 42.8000 -87.6833 164° South 271 312 7,000  Level KMKE
03:44PM 42.7228 -87.6581 166° South 264 304 7,000  Level Chicago Center
03:45PM 42.6514 -87.6408 170° South 260 299 7,000  Level Chicago Center
03:46PM 42.5797 -87.6347 176° South 257 296 7,000  Level Chicago Center
03:47PM 42.5053 -87.6239 174° South 266 306 7,000  Level Chicago Center
03:48PM 42.4250 -87.6089 172° South 288 331 7,000 -240 Level Chicago Center
03:49PM 42.3364 -87.5764 165° South 283 326 6,600 -540 Descending Chicago Center
03:50PM 42.2736 -87.5478 161° South 277 319 6,000 -780 Descending Chicago Center
03:51PM 42.1861 -87.5142 164° South 273 314 5,000 -840 Descending Chicago Center
03:52PM 42.1181 -87.4792 159° South 266 306 4,300 -480 Descending Chicago Center
03:53PM 42.0556 -87.4378 154° Southeast 258 297 4,000 -180 Descending Chicago Center
03:54PM 42.0122 -87.4619 203° Southwest 222 255 4,000  Level Chicago Center
03:55PM 41.9997 -87.5264 255° West 193 222 4,000  Level Chicago Center
03:56PM 42.0019 -87.6056 272° West 181 208 4,000  Level Chicago Center
03:57PM 42.0028 -87.6711 271° West 179 206 4,000 -480 Level Chicago Center
03:58PM 42.0022 -87.7369 269° West 178 205 3,100 -900 Descending Chicago Center
03:59PM 42.0022 -87.8019 270° West 178 205 2,200 -600 Descending Chicago Center
04:00PM 42.0014 -87.8622 269° West 170 196 1,900 -300 Descending Chicago Center
04:02PM 41.9667 -87.9000 169° South  Level FlightAware Approximate